sensor_id;sensor_type;location;lat;lon;timestamp;P1;durP1;ratioP1;P2;durP2;ratioP2
18857;SDS011;9558;50.178;8.370;2023-08-06T00:01:47;3.58;;;2.00;;
18857;SDS011;9558;50.178;8.370;2023-08-06T00:04:35;2.88;;;1.52;;
18857;SDS011;9558;50.178;8.370;2023-08-06T00:07:22;3.63;;;2.13;;
18857;SDS011;9558;50.178;8.370;2023-08-06T00:10:09;3.08;;;1.88;;
18857;SDS011;9558;50.178;8.370;2023-08-06T00:12:55;3.17;;;1.75;;
18857;SDS011;9558;50.178;8.370;2023-08-06T00:15:42;6.70;;;2.10;;
18857;SDS011;9558;50.178;8.370;2023-08-06T00:18:29;5.53;;;2.60;;
18857;SDS011;9558;50.178;8.370;2023-08-06T00:21:17;3.00;;;2.10;;
18857;SDS011;9558;50.178;8.370;2023-08-06T00:24:04;3.03;;;1.95;;
18857;SDS011;9558;50.178;8.370;2023-08-06T00:26:51;3.00;;;1.70;;
18857;SDS011;9558;50.178;8.370;2023-08-06T00:29:37;2.33;;;1.80;;
18857;SDS011;9558;50.178;8.370;2023-08-06T00:32:24;1.70;;;1.55;;
18857;SDS011;9558;50.178;8.370;2023-08-06T00:35:11;2.80;;;1.98;;
18857;SDS011;9558;50.178;8.370;2023-08-06T00:38:00;7.75;;;1.83;;
18857;SDS011;9558;50.178;8.370;2023-08-06T00:40:46;2.95;;;1.90;;
18857;SDS011;9558;50.178;8.370;2023-08-06T00:43:33;11.80;;;2.22;;
18857;SDS011;9558;50.178;8.370;2023-08-06T00:46:20;3.60;;;1.85;;
18857;SDS011;9558;50.178;8.370;2023-08-06T00:49:07;2.67;;;1.75;;
18857;SDS011;9558;50.178;8.370;2023-08-06T00:51:54;2.63;;;1.70;;
18857;SDS011;9558;50.178;8.370;2023-08-06T00:54:42;2.83;;;1.55;;
18857;SDS011;9558;50.178;8.370;2023-08-06T00:57:29;1.92;;;1.67;;
18857;SDS011;9558;50.178;8.370;2023-08-06T01:00:16;2.22;;;1.50;;
18857;SDS011;9558;50.178;8.370;2023-08-06T01:03:03;3.05;;;1.67;;
18857;SDS011;9558;50.178;8.370;2023-08-06T01:05:50;2.97;;;1.58;;
18857;SDS011;9558;50.178;8.370;2023-08-06T01:08:40;1.77;;;1.40;;
18857;SDS011;9558;50.178;8.370;2023-08-06T01:11:41;5.45;;;1.70;;
18857;SDS011;9558;50.178;8.370;2023-08-06T01:14:41;4.57;;;1.48;;
18857;SDS011;9558;50.178;8.370;2023-08-06T01:17:35;2.17;;;1.60;;
18857;SDS011;9558;50.178;8.370;2023-08-06T01:20:28;2.70;;;1.70;;
18857;SDS011;9558;50.178;8.370;2023-08-06T01:23:15;2.38;;;1.50;;
18857;SDS011;9558;50.178;8.370;2023-08-06T01:26:05;3.10;;;1.75;;
18857;SDS011;9558;50.178;8.370;2023-08-06T01:29:02;4.15;;;1.50;;
18857;SDS011;9558;50.178;8.370;2023-08-06T01:31:54;4.28;;;1.55;;
18857;SDS011;9558;50.178;8.370;2023-08-06T01:34:44;3.42;;;1.70;;
18857;SDS011;9558;50.178;8.370;2023-08-06T01:37:33;4.50;;;1.67;;
18857;SDS011;9558;50.178;8.370;2023-08-06T01:40:20;2.13;;;1.48;;
18857;SDS011;9558;50.178;8.370;2023-08-06T01:43:07;2.58;;;1.48;;
18857;SDS011;9558;50.178;8.370;2023-08-06T01:45:54;6.97;;;1.90;;
18857;SDS011;9558;50.178;8.370;2023-08-06T01:48:41;7.20;;;1.98;;
18857;SDS011;9558;50.178;8.370;2023-08-06T01:51:27;3.83;;;1.98;;
18857;SDS011;9558;50.178;8.370;2023-08-06T01:54:15;4.28;;;2.75;;
18857;SDS011;9558;50.178;8.370;2023-08-06T01:57:02;4.80;;;2.55;;
18857;SDS011;9558;50.178;8.370;2023-08-06T01:59:49;7.40;;;3.00;;
18857;SDS011;9558;50.178;8.370;2023-08-06T02:02:36;4.85;;;2.92;;
18857;SDS011;9558;50.178;8.370;2023-08-06T02:05:23;4.95;;;2.35;;
18857;SDS011;9558;50.178;8.370;2023-08-06T02:08:09;4.38;;;2.53;;
18857;SDS011;9558;50.178;8.370;2023-08-06T02:10:57;4.47;;;2.50;;
18857;SDS011;9558;50.178;8.370;2023-08-06T02:13:45;5.97;;;2.38;;
18857;SDS011;9558;50.178;8.370;2023-08-06T02:16:32;5.90;;;2.30;;
18857;SDS011;9558;50.178;8.370;2023-08-06T02:19:19;9.60;;;2.72;;
18857;SDS011;9558;50.178;8.370;2023-08-06T02:22:05;4.05;;;2.45;;
18857;SDS011;9558;50.178;8.370;2023-08-06T02:24:52;4.53;;;2.40;;
18857;SDS011;9558;50.178;8.370;2023-08-06T02:27:40;5.18;;;2.42;;
18857;SDS011;9558;50.178;8.370;2023-08-06T02:30:28;3.03;;;2.17;;
18857;SDS011;9558;50.178;8.370;2023-08-06T02:33:14;3.38;;;1.90;;
18857;SDS011;9558;50.178;8.370;2023-08-06T02:36:01;2.22;;;1.77;;
18857;SDS011;9558;50.178;8.370;2023-08-06T02:38:50;5.85;;;2.63;;
18857;SDS011;9558;50.178;8.370;2023-08-06T02:41:36;3.33;;;2.10;;
18857;SDS011;9558;50.178;8.370;2023-08-06T02:44:26;2.97;;;1.90;;
18857;SDS011;9558;50.178;8.370;2023-08-06T02:47:13;3.40;;;2.22;;
18857;SDS011;9558;50.178;8.370;2023-08-06T02:50:00;3.65;;;1.75;;
18857;SDS011;9558;50.178;8.370;2023-08-06T02:52:46;3.95;;;1.60;;
18857;SDS011;9558;50.178;8.370;2023-08-06T02:55:33;3.50;;;2.00;;
18857;SDS011;9558;50.178;8.370;2023-08-06T02:58:20;4.60;;;2.05;;
18857;SDS011;9558;50.178;8.370;2023-08-06T03:01:09;4.97;;;2.00;;
18857;SDS011;9558;50.178;8.370;2023-08-06T03:03:56;8.05;;;2.30;;
18857;SDS011;9558;50.178;8.370;2023-08-06T03:06:42;5.97;;;1.80;;
18857;SDS011;9558;50.178;8.370;2023-08-06T03:09:29;7.45;;;2.88;;
18857;SDS011;9558;50.178;8.370;2023-08-06T03:12:16;5.28;;;2.08;;
18857;SDS011;9558;50.178;8.370;2023-08-06T03:15:03;4.97;;;2.53;;
18857;SDS011;9558;50.178;8.370;2023-08-06T03:17:52;3.40;;;2.53;;
18857;SDS011;9558;50.178;8.370;2023-08-06T03:20:42;3.58;;;2.00;;
18857;SDS011;9558;50.178;8.370;2023-08-06T03:23:28;4.47;;;2.67;;
18857;SDS011;9558;50.178;8.370;2023-08-06T03:26:15;3.95;;;2.17;;
18857;SDS011;9558;50.178;8.370;2023-08-06T03:29:02;3.05;;;1.90;;
18857;SDS011;9558;50.178;8.370;2023-08-06T03:31:49;4.88;;;2.13;;
18857;SDS011;9558;50.178;8.370;2023-08-06T03:34:37;3.45;;;1.95;;
18857;SDS011;9558;50.178;8.370;2023-08-06T03:37:24;4.72;;;2.72;;
18857;SDS011;9558;50.178;8.370;2023-08-06T03:40:10;5.78;;;2.95;;
18857;SDS011;9558;50.178;8.370;2023-08-06T03:42:57;4.72;;;2.20;;
18857;SDS011;9558;50.178;8.370;2023-08-06T03:45:44;6.82;;;2.50;;
18857;SDS011;9558;50.178;8.370;2023-08-06T03:48:31;12.85;;;2.83;;
18857;SDS011;9558;50.178;8.370;2023-08-06T03:51:19;8.18;;;2.47;;
18857;SDS011;9558;50.178;8.370;2023-08-06T03:54:05;4.72;;;2.38;;
18857;SDS011;9558;50.178;8.370;2023-08-06T03:56:52;4.10;;;2.50;;
18857;SDS011;9558;50.178;8.370;2023-08-06T03:59:39;3.90;;;2.40;;
18857;SDS011;9558;50.178;8.370;2023-08-06T04:02:26;4.95;;;2.50;;
18857;SDS011;9558;50.178;8.370;2023-08-06T04:05:13;3.15;;;2.17;;
18857;SDS011;9558;50.178;8.370;2023-08-06T04:08:01;5.25;;;2.55;;
18857;SDS011;9558;50.178;8.370;2023-08-06T04:10:49;6.65;;;2.80;;
18857;SDS011;9558;50.178;8.370;2023-08-06T04:13:35;4.93;;;2.35;;
18857;SDS011;9558;50.178;8.370;2023-08-06T04:16:22;6.53;;;1.92;;
18857;SDS011;9558;50.178;8.370;2023-08-06T04:19:09;5.63;;;2.17;;
18857;SDS011;9558;50.178;8.370;2023-08-06T04:21:56;2.65;;;1.83;;
18857;SDS011;9558;50.178;8.370;2023-08-06T04:24:44;5.05;;;2.38;;
18857;SDS011;9558;50.178;8.370;2023-08-06T04:27:31;2.90;;;1.60;;
18857;SDS011;9558;50.178;8.370;2023-08-06T04:30:18;2.20;;;1.90;;
18857;SDS011;9558;50.178;8.370;2023-08-06T04:33:04;6.80;;;1.90;;
18857;SDS011;9558;50.178;8.370;2023-08-06T04:35:53;2.88;;;1.80;;
18857;SDS011;9558;50.178;8.370;2023-08-06T04:38:41;2.90;;;1.73;;
18857;SDS011;9558;50.178;8.370;2023-08-06T04:41:31;1.60;;;1.30;;
18857;SDS011;9558;50.178;8.370;2023-08-06T04:44:18;2.50;;;1.40;;
18857;SDS011;9558;50.178;8.370;2023-08-06T04:47:05;4.75;;;1.80;;
18857;SDS011;9558;50.178;8.370;2023-08-06T04:49:52;1.73;;;1.25;;
18857;SDS011;9558;50.178;8.370;2023-08-06T04:52:38;1.90;;;0.95;;
18857;SDS011;9558;50.178;8.370;2023-08-06T04:55:25;1.00;;;0.90;;
18857;SDS011;9558;50.178;8.370;2023-08-06T04:58:13;2.45;;;1.02;;
18857;SDS011;9558;50.178;8.370;2023-08-06T05:01:00;1.55;;;1.30;;
18857;SDS011;9558;50.178;8.370;2023-08-06T05:03:47;1.40;;;0.88;;
18857;SDS011;9558;50.178;8.370;2023-08-06T05:06:34;1.48;;;1.08;;
18857;SDS011;9558;50.178;8.370;2023-08-06T05:09:23;2.13;;;1.58;;
18857;SDS011;9558;50.178;8.370;2023-08-06T05:12:10;5.95;;;1.75;;
18857;SDS011;9558;50.178;8.370;2023-08-06T05:14:58;6.78;;;1.35;;
18857;SDS011;9558;50.178;8.370;2023-08-06T05:17:45;1.65;;;1.10;;
18857;SDS011;9558;50.178;8.370;2023-08-06T05:20:35;2.88;;;1.23;;
18857;SDS011;9558;50.178;8.370;2023-08-06T05:23:22;1.17;;;0.80;;
18857;SDS011;9558;50.178;8.370;2023-08-06T05:26:09;2.13;;;1.10;;
18857;SDS011;9558;50.178;8.370;2023-08-06T05:28:56;2.05;;;1.13;;
18857;SDS011;9558;50.178;8.370;2023-08-06T05:31:44;1.45;;;0.80;;
18857;SDS011;9558;50.178;8.370;2023-08-06T05:34:31;2.03;;;1.33;;
18857;SDS011;9558;50.178;8.370;2023-08-06T05:37:18;1.30;;;1.00;;
18857;SDS011;9558;50.178;8.370;2023-08-06T05:40:05;0.60;;;0.60;;
18857;SDS011;9558;50.178;8.370;2023-08-06T05:42:53;2.70;;;0.60;;
18857;SDS011;9558;50.178;8.370;2023-08-06T05:45:43;2.25;;;0.60;;
18857;SDS011;9558;50.178;8.370;2023-08-06T05:48:32;1.02;;;0.70;;
18857;SDS011;9558;50.178;8.370;2023-08-06T05:51:18;1.42;;;0.60;;
18857;SDS011;9558;50.178;8.370;2023-08-06T05:54:05;0.98;;;0.60;;
18857;SDS011;9558;50.178;8.370;2023-08-06T05:56:52;2.97;;;0.82;;
18857;SDS011;9558;50.178;8.370;2023-08-06T05:59:40;0.50;;;0.50;;
18857;SDS011;9558;50.178;8.370;2023-08-06T06:02:27;0.82;;;0.63;;
18857;SDS011;9558;50.178;8.370;2023-08-06T06:05:15;0.80;;;0.60;;
18857;SDS011;9558;50.178;8.370;2023-08-06T06:08:02;2.40;;;0.63;;
18857;SDS011;9558;50.178;8.370;2023-08-06T06:10:49;1.95;;;0.50;;
18857;SDS011;9558;50.178;8.370;2023-08-06T06:13:36;0.50;;;0.50;;
18857;SDS011;9558;50.178;8.370;2023-08-06T06:16:23;1.02;;;0.50;;
18857;SDS011;9558;50.178;8.370;2023-08-06T06:19:09;0.60;;;0.40;;
18857;SDS011;9558;50.178;8.370;2023-08-06T06:21:57;0.77;;;0.63;;
18857;SDS011;9558;50.178;8.370;2023-08-06T06:24:44;1.38;;;0.43;;
18857;SDS011;9558;50.178;8.370;2023-08-06T06:27:31;0.30;;;0.22;;
18857;SDS011;9558;50.178;8.370;2023-08-06T06:30:18;0.90;;;0.50;;
18857;SDS011;9558;50.178;8.370;2023-08-06T06:33:04;0.25;;;0.25;;
18857;SDS011;9558;50.178;8.370;2023-08-06T06:35:51;2.15;;;0.30;;
18857;SDS011;9558;50.178;8.370;2023-08-06T06:38:39;0.20;;;0.20;;
18857;SDS011;9558;50.178;8.370;2023-08-06T06:41:26;0.20;;;0.20;;
18857;SDS011;9558;50.178;8.370;2023-08-06T06:44:15;5.07;;;0.40;;
18857;SDS011;9558;50.178;8.370;2023-08-06T06:47:01;0.22;;;0.22;;
18857;SDS011;9558;50.178;8.370;2023-08-06T06:49:48;0.30;;;0.20;;
18857;SDS011;9558;50.178;8.370;2023-08-06T06:52:36;2.25;;;0.20;;
18857;SDS011;9558;50.178;8.370;2023-08-06T06:55:24;0.20;;;0.20;;
18857;SDS011;9558;50.178;8.370;2023-08-06T06:58:11;0.20;;;0.15;;
18857;SDS011;9558;50.178;8.370;2023-08-06T07:00:58;3.20;;;0.20;;
18857;SDS011;9558;50.178;8.370;2023-08-06T07:03:45;0.13;;;0.08;;
18857;SDS011;9558;50.178;8.370;2023-08-06T07:06:31;0.65;;;0.17;;
18857;SDS011;9558;50.178;8.370;2023-08-06T07:09:18;0.10;;;0.10;;
18857;SDS011;9558;50.178;8.370;2023-08-06T07:12:07;0.20;;;0.20;;
18857;SDS011;9558;50.178;8.370;2023-08-06T07:14:54;0.10;;;0.08;;
18857;SDS011;9558;50.178;8.370;2023-08-06T07:17:41;0.77;;;0.10;;
18857;SDS011;9558;50.178;8.370;2023-08-06T07:20:28;0.10;;;0.10;;
18857;SDS011;9558;50.178;8.370;2023-08-06T07:23:17;0.52;;;0.20;;
18857;SDS011;9558;50.178;8.370;2023-08-06T07:26:04;1.35;;;0.10;;
18857;SDS011;9558;50.178;8.370;2023-08-06T07:28:52;0.25;;;0.20;;
18857;SDS011;9558;50.178;8.370;2023-08-06T07:31:39;0.32;;;0.20;;
18857;SDS011;9558;50.178;8.370;2023-08-06T07:34:26;0.13;;;0.10;;
18857;SDS011;9558;50.178;8.370;2023-08-06T07:37:13;0.20;;;0.20;;
18857;SDS011;9558;50.178;8.370;2023-08-06T07:40:00;0.40;;;0.13;;
18857;SDS011;9558;50.178;8.370;2023-08-06T07:42:47;0.10;;;0.10;;
18857;SDS011;9558;50.178;8.370;2023-08-06T07:45:35;0.43;;;0.30;;
18857;SDS011;9558;50.178;8.370;2023-08-06T07:48:22;2.47;;;0.35;;
18857;SDS011;9558;50.178;8.370;2023-08-06T07:51:09;0.30;;;0.30;;
18857;SDS011;9558;50.178;8.370;2023-08-06T07:53:56;1.95;;;0.60;;
18857;SDS011;9558;50.178;8.370;2023-08-06T07:56:43;0.30;;;0.30;;
18857;SDS011;9558;50.178;8.370;2023-08-06T07:59:29;0.40;;;0.40;;
18857;SDS011;9558;50.178;8.370;2023-08-06T08:02:18;0.77;;;0.50;;
18857;SDS011;9558;50.178;8.370;2023-08-06T08:05:05;0.40;;;0.40;;
18857;SDS011;9558;50.178;8.370;2023-08-06T08:07:52;0.30;;;0.30;;
18857;SDS011;9558;50.178;8.370;2023-08-06T08:10:42;0.40;;;0.40;;
18857;SDS011;9558;50.178;8.370;2023-08-06T08:13:29;2.28;;;0.57;;
18857;SDS011;9558;50.178;8.370;2023-08-06T08:16:15;0.52;;;0.52;;
18857;SDS011;9558;50.178;8.370;2023-08-06T08:19:04;0.50;;;0.50;;
18857;SDS011;9558;50.178;8.370;2023-08-06T08:21:51;0.45;;;0.45;;
18857;SDS011;9558;50.178;8.370;2023-08-06T08:24:42;0.38;;;0.38;;
18857;SDS011;9558;50.178;8.370;2023-08-06T08:27:32;2.40;;;0.60;;
18857;SDS011;9558;50.178;8.370;2023-08-06T08:30:19;0.68;;;0.60;;
18857;SDS011;9558;50.178;8.370;2023-08-06T08:33:05;0.60;;;0.60;;
18857;SDS011;9558;50.178;8.370;2023-08-06T08:35:54;0.38;;;0.38;;
18857;SDS011;9558;50.178;8.370;2023-08-06T08:38:41;0.70;;;0.30;;
18857;SDS011;9558;50.178;8.370;2023-08-06T08:41:28;0.38;;;0.38;;
18857;SDS011;9558;50.178;8.370;2023-08-06T08:44:17;0.57;;;0.35;;
18857;SDS011;9558;50.178;8.370;2023-08-06T08:47:04;0.20;;;0.20;;
18857;SDS011;9558;50.178;8.370;2023-08-06T08:49:52;0.40;;;0.28;;
18857;SDS011;9558;50.178;8.370;2023-08-06T08:52:42;0.20;;;0.10;;
18857;SDS011;9558;50.178;8.370;2023-08-06T08:55:30;0.47;;;0.28;;
18857;SDS011;9558;50.178;8.370;2023-08-06T08:58:18;0.73;;;0.10;;
18857;SDS011;9558;50.178;8.370;2023-08-06T09:01:05;0.20;;;0.20;;
18857;SDS011;9558;50.178;8.370;2023-08-06T09:03:53;0.15;;;0.15;;
18857;SDS011;9558;50.178;8.370;2023-08-06T09:06:42;0.80;;;0.13;;
18857;SDS011;9558;50.178;8.370;2023-08-06T09:09:34;0.70;;;0.15;;
18857;SDS011;9558;50.178;8.370;2023-08-06T09:12:23;0.00;;;0.00;;
18857;SDS011;9558;50.178;8.370;2023-08-06T09:15:10;0.10;;;0.10;;
18857;SDS011;9558;50.178;8.370;2023-08-06T09:17:57;0.10;;;0.10;;
18857;SDS011;9558;50.178;8.370;2023-08-06T09:20:43;0.10;;;0.10;;
18857;SDS011;9558;50.178;8.370;2023-08-06T09:23:31;0.40;;;0.10;;
18857;SDS011;9558;50.178;8.370;2023-08-06T09:26:20;0.10;;;0.10;;
18857;SDS011;9558;50.178;8.370;2023-08-06T09:29:07;0.10;;;0.10;;
18857;SDS011;9558;50.178;8.370;2023-08-06T09:31:56;0.13;;;0.13;;
18857;SDS011;9558;50.178;8.370;2023-08-06T09:34:43;0.10;;;0.10;;
18857;SDS011;9558;50.178;8.370;2023-08-06T09:37:35;0.17;;;0.17;;
18857;SDS011;9558;50.178;8.370;2023-08-06T09:40:25;0.10;;;0.10;;
18857;SDS011;9558;50.178;8.370;2023-08-06T09:43:14;1.60;;;0.10;;
18857;SDS011;9558;50.178;8.370;2023-08-06T09:46:01;1.23;;;0.20;;
18857;SDS011;9558;50.178;8.370;2023-08-06T09:48:58;0.10;;;0.10;;
18857;SDS011;9558;50.178;8.370;2023-08-06T09:51:45;0.28;;;0.17;;
18857;SDS011;9558;50.178;8.370;2023-08-06T09:54:36;0.15;;;0.10;;
18857;SDS011;9558;50.178;8.370;2023-08-06T09:57:24;0.17;;;0.17;;
18857;SDS011;9558;50.178;8.370;2023-08-06T10:00:13;0.10;;;0.10;;
18857;SDS011;9558;50.178;8.370;2023-08-06T10:03:02;0.10;;;0.10;;
18857;SDS011;9558;50.178;8.370;2023-08-06T10:05:51;2.45;;;0.05;;
18857;SDS011;9558;50.178;8.370;2023-08-06T10:08:38;0.00;;;0.00;;
18857;SDS011;9558;50.178;8.370;2023-08-06T10:11:26;0.35;;;0.10;;
18857;SDS011;9558;50.178;8.370;2023-08-06T10:14:16;0.10;;;0.10;;
18857;SDS011;9558;50.178;8.370;2023-08-06T10:17:07;0.55;;;0.10;;
18857;SDS011;9558;50.178;8.370;2023-08-06T10:19:55;0.00;;;0.00;;
18857;SDS011;9558;50.178;8.370;2023-08-06T10:22:42;0.13;;;0.10;;
18857;SDS011;9558;50.178;8.370;2023-08-06T10:25:31;0.10;;;0.03;;
18857;SDS011;9558;50.178;8.370;2023-08-06T10:28:19;0.00;;;0.00;;
18857;SDS011;9558;50.178;8.370;2023-08-06T10:31:06;0.25;;;0.10;;
18857;SDS011;9558;50.178;8.370;2023-08-06T10:33:54;0.10;;;0.10;;
18857;SDS011;9558;50.178;8.370;2023-08-06T10:36:41;2.47;;;0.63;;
18857;SDS011;9558;50.178;8.370;2023-08-06T10:39:27;0.40;;;0.20;;
18857;SDS011;9558;50.178;8.370;2023-08-06T10:42:19;0.98;;;0.60;;
18857;SDS011;9558;50.178;8.370;2023-08-06T10:48:03;0.10;;;0.10;;
18857;SDS011;9558;50.178;8.370;2023-08-06T10:50:52;0.10;;;0.10;;
18857;SDS011;9558;50.178;8.370;2023-08-06T10:53:41;0.00;;;0.00;;
18857;SDS011;9558;50.178;8.370;2023-08-06T10:56:29;0.98;;;0.10;;
18857;SDS011;9558;50.178;8.370;2023-08-06T10:59:16;0.68;;;0.10;;
18857;SDS011;9558;50.178;8.370;2023-08-06T11:02:03;0.17;;;0.10;;
18857;SDS011;9558;50.178;8.370;2023-08-06T11:04:50;0.10;;;0.10;;
18857;SDS011;9558;50.178;8.370;2023-08-06T11:07:38;0.93;;;0.10;;
18857;SDS011;9558;50.178;8.370;2023-08-06T11:10:25;0.10;;;0.10;;
18857;SDS011;9558;50.178;8.370;2023-08-06T11:13:12;0.10;;;0.10;;
18857;SDS011;9558;50.178;8.370;2023-08-06T11:16:03;0.25;;;0.20;;
18857;SDS011;9558;50.178;8.370;2023-08-06T11:18:50;1.90;;;0.10;;
18857;SDS011;9558;50.178;8.370;2023-08-06T11:21:39;4.00;;;0.75;;
18857;SDS011;9558;50.178;8.370;2023-08-06T11:24:27;0.38;;;0.15;;
18857;SDS011;9558;50.178;8.370;2023-08-06T11:27:15;0.30;;;0.10;;
18857;SDS011;9558;50.178;8.370;2023-08-06T11:30:03;1.95;;;0.30;;
18857;SDS011;9558;50.178;8.370;2023-08-06T11:32:51;0.28;;;0.28;;
18857;SDS011;9558;50.178;8.370;2023-08-06T11:35:37;3.15;;;1.15;;
18857;SDS011;9558;50.178;8.370;2023-08-06T11:38:25;0.10;;;0.10;;
18857;SDS011;9558;50.178;8.370;2023-08-06T11:41:14;0.10;;;0.10;;
18857;SDS011;9558;50.178;8.370;2023-08-06T11:44:01;0.10;;;0.10;;
18857;SDS011;9558;50.178;8.370;2023-08-06T11:46:51;0.80;;;0.17;;
18857;SDS011;9558;50.178;8.370;2023-08-06T11:52:29;0.05;;;0.05;;
18857;SDS011;9558;50.178;8.370;2023-08-06T11:55:16;4.50;;;0.10;;
18857;SDS011;9558;50.178;8.370;2023-08-06T11:58:05;0.10;;;0.10;;
18857;SDS011;9558;50.178;8.370;2023-08-06T12:00:52;0.10;;;0.10;;
18857;SDS011;9558;50.178;8.370;2023-08-06T12:03:39;0.10;;;0.10;;
18857;SDS011;9558;50.178;8.370;2023-08-06T12:06:26;0.40;;;0.10;;
18857;SDS011;9558;50.178;8.370;2023-08-06T12:09:13;0.10;;;0.10;;
18857;SDS011;9558;50.178;8.370;2023-08-06T12:12:00;0.68;;;0.30;;
18857;SDS011;9558;50.178;8.370;2023-08-06T12:14:48;0.13;;;0.08;;
18857;SDS011;9558;50.178;8.370;2023-08-06T12:17:35;0.20;;;0.20;;
18857;SDS011;9558;50.178;8.370;2023-08-06T12:20:23;0.30;;;0.30;;
18857;SDS011;9558;50.178;8.370;2023-08-06T12:23:10;0.22;;;0.10;;
18857;SDS011;9558;50.178;8.370;2023-08-06T12:26:00;0.35;;;0.10;;
18857;SDS011;9558;50.178;8.370;2023-08-06T12:28:47;0.10;;;0.10;;
18857;SDS011;9558;50.178;8.370;2023-08-06T12:31:36;0.20;;;0.20;;
18857;SDS011;9558;50.178;8.370;2023-08-06T12:34:23;0.65;;;0.30;;
18857;SDS011;9558;50.178;8.370;2023-08-06T12:37:10;0.20;;;0.10;;
18857;SDS011;9558;50.178;8.370;2023-08-06T12:39:56;0.10;;;0.10;;
18857;SDS011;9558;50.178;8.370;2023-08-06T12:42:43;2.20;;;0.20;;
18857;SDS011;9558;50.178;8.370;2023-08-06T12:45:30;0.20;;;0.10;;
18857;SDS011;9558;50.178;8.370;2023-08-06T12:48:18;3.30;;;0.30;;
18857;SDS011;9558;50.178;8.370;2023-08-06T12:51:05;2.13;;;0.20;;
18857;SDS011;9558;50.178;8.370;2023-08-06T12:53:52;0.40;;;0.40;;
18857;SDS011;9558;50.178;8.370;2023-08-06T12:56:38;0.55;;;0.10;;
18857;SDS011;9558;50.178;8.370;2023-08-06T12:59:25;0.30;;;0.10;;
18857;SDS011;9558;50.178;8.370;2023-08-06T13:02:12;0.20;;;0.08;;
18857;SDS011;9558;50.178;8.370;2023-08-06T13:05:00;0.13;;;0.13;;
18857;SDS011;9558;50.178;8.370;2023-08-06T13:07:50;0.28;;;0.20;;
18857;SDS011;9558;50.178;8.370;2023-08-06T13:10:37;0.10;;;0.10;;
18857;SDS011;9558;50.178;8.370;2023-08-06T13:13:24;0.45;;;0.25;;
18857;SDS011;9558;50.178;8.370;2023-08-06T13:16:12;0.38;;;0.10;;
18857;SDS011;9558;50.178;8.370;2023-08-06T13:19:00;0.20;;;0.20;;
18857;SDS011;9558;50.178;8.370;2023-08-06T13:24:56;0.32;;;0.15;;
18857;SDS011;9558;50.178;8.370;2023-08-06T13:27:42;0.55;;;0.20;;
18857;SDS011;9558;50.178;8.370;2023-08-06T13:30:31;1.38;;;0.22;;
18857;SDS011;9558;50.178;8.370;2023-08-06T13:33:18;1.45;;;0.20;;
18857;SDS011;9558;50.178;8.370;2023-08-06T13:36:05;0.20;;;0.13;;
18857;SDS011;9558;50.178;8.370;2023-08-06T13:38:53;0.20;;;0.20;;
18857;SDS011;9558;50.178;8.370;2023-08-06T13:41:40;1.30;;;0.70;;
18857;SDS011;9558;50.178;8.370;2023-08-06T13:44:26;1.42;;;0.20;;
18857;SDS011;9558;50.178;8.370;2023-08-06T13:47:14;3.83;;;0.30;;
18857;SDS011;9558;50.178;8.370;2023-08-06T13:50:01;0.20;;;0.20;;
18857;SDS011;9558;50.178;8.370;2023-08-06T13:52:48;0.20;;;0.20;;
18857;SDS011;9558;50.178;8.370;2023-08-06T13:55:36;0.80;;;0.30;;
18857;SDS011;9558;50.178;8.370;2023-08-06T13:58:23;0.38;;;0.17;;
18857;SDS011;9558;50.178;8.370;2023-08-06T14:01:11;0.30;;;0.25;;
18857;SDS011;9558;50.178;8.370;2023-08-06T14:03:58;2.60;;;0.20;;
18857;SDS011;9558;50.178;8.370;2023-08-06T14:06:45;0.80;;;0.20;;
18857;SDS011;9558;50.178;8.370;2023-08-06T14:09:32;1.27;;;0.30;;
18857;SDS011;9558;50.178;8.370;2023-08-06T14:12:21;0.70;;;0.30;;
18857;SDS011;9558;50.178;8.370;2023-08-06T14:15:08;0.35;;;0.30;;
18857;SDS011;9558;50.178;8.370;2023-08-06T14:17:55;0.10;;;0.10;;
18857;SDS011;9558;50.178;8.370;2023-08-06T14:20:42;0.43;;;0.30;;
18857;SDS011;9558;50.178;8.370;2023-08-06T14:23:29;0.93;;;0.47;;
18857;SDS011;9558;50.178;8.370;2023-08-06T14:26:16;1.25;;;0.73;;
18857;SDS011;9558;50.178;8.370;2023-08-06T14:29:04;1.05;;;0.52;;
18857;SDS011;9558;50.178;8.370;2023-08-06T14:31:50;4.20;;;2.67;;
18857;SDS011;9558;50.178;8.370;2023-08-06T14:34:37;1.23;;;0.80;;
18857;SDS011;9558;50.178;8.370;2023-08-06T14:37:24;0.20;;;0.20;;
18857;SDS011;9558;50.178;8.370;2023-08-06T14:40:11;0.30;;;0.30;;
18857;SDS011;9558;50.178;8.370;2023-08-06T14:42:58;0.10;;;0.10;;
18857;SDS011;9558;50.178;8.370;2023-08-06T14:45:46;0.20;;;0.20;;
18857;SDS011;9558;50.178;8.370;2023-08-06T14:48:33;2.15;;;1.20;;
18857;SDS011;9558;50.178;8.370;2023-08-06T14:51:20;0.35;;;0.30;;
18857;SDS011;9558;50.178;8.370;2023-08-06T14:54:06;1.35;;;0.52;;
18857;SDS011;9558;50.178;8.370;2023-08-06T14:56:53;0.20;;;0.20;;
18857;SDS011;9558;50.178;8.370;2023-08-06T14:59:40;2.28;;;0.10;;
18857;SDS011;9558;50.178;8.370;2023-08-06T15:02:31;0.52;;;0.30;;
18857;SDS011;9558;50.178;8.370;2023-08-06T15:05:17;4.53;;;1.38;;
18857;SDS011;9558;50.178;8.370;2023-08-06T15:08:04;2.25;;;0.40;;
18857;SDS011;9558;50.178;8.370;2023-08-06T15:10:52;0.77;;;0.65;;
18857;SDS011;9558;50.178;8.370;2023-08-06T15:13:39;0.80;;;0.80;;
18857;SDS011;9558;50.178;8.370;2023-08-06T15:16:26;0.75;;;0.73;;
18857;SDS011;9558;50.178;8.370;2023-08-06T15:19:14;0.50;;;0.50;;
18857;SDS011;9558;50.178;8.370;2023-08-06T15:22:01;2.33;;;1.45;;
18857;SDS011;9558;50.178;8.370;2023-08-06T15:24:48;1.05;;;0.40;;
18857;SDS011;9558;50.178;8.370;2023-08-06T15:27:35;0.40;;;0.40;;
18857;SDS011;9558;50.178;8.370;2023-08-06T15:30:22;1.08;;;0.40;;
18857;SDS011;9558;50.178;8.370;2023-08-06T15:33:09;0.95;;;0.30;;
18857;SDS011;9558;50.178;8.370;2023-08-06T15:35:57;0.63;;;0.32;;
18857;SDS011;9558;50.178;8.370;2023-08-06T15:38:43;0.40;;;0.40;;
18857;SDS011;9558;50.178;8.370;2023-08-06T15:41:30;0.30;;;0.30;;
18857;SDS011;9558;50.178;8.370;2023-08-06T15:44:17;0.30;;;0.30;;
18857;SDS011;9558;50.178;8.370;2023-08-06T15:47:04;1.83;;;0.60;;
18857;SDS011;9558;50.178;8.370;2023-08-06T15:49:51;0.55;;;0.40;;
18857;SDS011;9558;50.178;8.370;2023-08-06T15:52:39;1.17;;;0.95;;
18857;SDS011;9558;50.178;8.370;2023-08-06T15:55:26;0.77;;;0.40;;
18857;SDS011;9558;50.178;8.370;2023-08-06T15:58:13;0.30;;;0.30;;
18857;SDS011;9558;50.178;8.370;2023-08-06T16:01:00;0.40;;;0.30;;
18857;SDS011;9558;50.178;8.370;2023-08-06T16:03:47;0.82;;;0.15;;
18857;SDS011;9558;50.178;8.370;2023-08-06T16:06:34;0.57;;;0.40;;
18857;SDS011;9558;50.178;8.370;2023-08-06T16:09:22;0.10;;;0.10;;
18857;SDS011;9558;50.178;8.370;2023-08-06T16:12:10;0.20;;;0.20;;
18857;SDS011;9558;50.178;8.370;2023-08-06T16:14:56;0.38;;;0.20;;
18857;SDS011;9558;50.178;8.370;2023-08-06T16:17:43;0.77;;;0.20;;
18857;SDS011;9558;50.178;8.370;2023-08-06T16:20:30;0.10;;;0.10;;
18857;SDS011;9558;50.178;8.370;2023-08-06T16:23:17;0.95;;;0.30;;
18857;SDS011;9558;50.178;8.370;2023-08-06T16:26:05;0.05;;;0.05;;
18857;SDS011;9558;50.178;8.370;2023-08-06T16:28:52;0.43;;;0.20;;
18857;SDS011;9558;50.178;8.370;2023-08-06T16:31:39;0.00;;;0.00;;
18857;SDS011;9558;50.178;8.370;2023-08-06T16:34:25;0.60;;;0.30;;
18857;SDS011;9558;50.178;8.370;2023-08-06T16:37:12;2.25;;;0.08;;
18857;SDS011;9558;50.178;8.370;2023-08-06T16:39:59;0.00;;;0.00;;
18857;SDS011;9558;50.178;8.370;2023-08-06T16:42:47;0.05;;;0.05;;
18857;SDS011;9558;50.178;8.370;2023-08-06T16:45:35;0.00;;;0.00;;
18857;SDS011;9558;50.178;8.370;2023-08-06T16:48:23;2.55;;;0.30;;
18857;SDS011;9558;50.178;8.370;2023-08-06T16:51:12;1.70;;;0.60;;
18857;SDS011;9558;50.178;8.370;2023-08-06T16:54:01;10.50;;;0.38;;
18857;SDS011;9558;50.178;8.370;2023-08-06T16:56:48;0.20;;;0.20;;
18857;SDS011;9558;50.178;8.370;2023-08-06T16:59:36;0.00;;;0.00;;
18857;SDS011;9558;50.178;8.370;2023-08-06T17:02:23;0.00;;;0.00;;
18857;SDS011;9558;50.178;8.370;2023-08-06T17:05:10;1.13;;;0.10;;
18857;SDS011;9558;50.178;8.370;2023-08-06T17:07:57;0.32;;;0.10;;
18857;SDS011;9558;50.178;8.370;2023-08-06T17:10:43;1.38;;;0.10;;
18857;SDS011;9558;50.178;8.370;2023-08-06T17:13:30;0.10;;;0.10;;